Time;durP1;ratioP1;P1;durP2;ratioP2;P2;SDS_P1;SDS_P2;PMS_P1;PMS_P2;Temp;Humidity;BMP_temperature;BMP_pressure;BME280_temperature;BME280_humidity;BME280_pressure;Samples;Min_cycle;Max_cycle;Signal;HPM_P1;HPM_P2
2022/09/26 00:01:23;;;;;;;5.05;2.10;;;;;;;;;;5055517;28;20040;-69
2022/09/26 00:03:50;;;;;;;6.00;2.45;;;;;;;;;;5055056;28;20037;-69
2022/09/26 00:06:17;;;;;;;5.30;2.30;;;;;;;;;;5053804;28;20052;-69
2022/09/26 00:08:45;;;;;;;5.97;2.58;;;;;;;;;;5053777;28;20483;-69
2022/09/26 00:11:12;;;;;;;7.63;2.50;;;;;;;;;;5055568;28;20159;-70
2022/09/26 00:13:39;;;;;;;6.47;2.58;;;;;;;;;;5054025;28;20497;-72
2022/09/26 00:16:05;;;;;;;3.80;2.40;;;;;;;;;;5055498;28;20389;-69
2022/09/26 00:18:31;;;;;;;5.85;2.75;;;;;;;;;;5053645;28;20551;-68
2022/09/26 00:21:08;;;;;;;9.18;2.65;;;;;;;;;;5055211;28;20414;-70
2022/09/26 00:23:34;;;;;;;9.00;2.65;;;;;;;;;;5054544;28;20543;-69
2022/09/26 00:26:00;;;;;;;10.00;2.63;;;;;;;;;;5055116;28;20079;-69
2022/09/26 00:28:29;;;;;;;5.18;1.95;;;;;;;;;;5052694;28;20041;-69
2022/09/26 00:30:55;;;;;;;7.47;2.63;;;;;;;;;;5036980;28;20052;-69
2022/09/26 00:33:22;;;;;;;5.28;2.50;;;;;;;;;;5053728;28;20446;-69
2022/09/26 00:35:55;;;;;;;7.45;2.50;;;;;;;;;;5054872;28;20452;-69
2022/09/26 00:38:21;;;;;;;5.25;2.38;;;;;;;;;;5053057;28;20041;-70
2022/09/26 00:40:48;;;;;;;6.15;2.42;;;;;;;;;;5036315;28;20079;-69
2022/09/26 00:43:26;;;;;;;6.28;2.15;;;;;;;;;;5054818;28;20566;-69
2022/09/26 00:45:53;;;;;;;6.57;2.58;;;;;;;;;;5053332;28;20079;-69
2022/09/26 00:48:19;;;;;;;5.90;2.20;;;;;;;;;;5054623;28;20033;-69
2022/09/26 00:50:46;;;;;;;7.25;2.47;;;;;;;;;;5054060;28;20040;-72
2022/09/26 00:53:15;;;;;;;5.55;2.45;;;;;;;;;;5053373;28;20047;-72
2022/09/26 00:55:44;;;;;;;4.80;2.00;;;;;;;;;;5054368;28;20037;-72
2022/09/26 00:58:12;;;;;;;9.35;2.33;;;;;;;;;;5054694;28;20525;-69
2022/09/26 01:00:40;;;;;;;7.93;2.30;;;;;;;;;;5053696;28;20052;-69
2022/09/26 01:03:06;;;;;;;5.72;2.20;;;;;;;;;;5053544;28;20509;-68
2022/09/26 01:05:33;;;;;;;9.45;2.50;;;;;;;;;;5069027;28;20053;-72
2022/09/26 01:08:00;;;;;;;5.90;2.20;;;;;;;;;;5053100;28;20045;-73
2022/09/26 01:10:27;;;;;;;13.82;2.90;;;;;;;;;;5053873;28;20040;-72
2022/09/26 01:12:53;;;;;;;6.53;2.20;;;;;;;;;;5054578;28;20130;-72
2022/09/26 01:15:19;;;;;;;6.40;2.20;;;;;;;;;;5054495;28;20490;-73
2022/09/26 01:17:45;;;;;;;5.53;2.22;;;;;;;;;;5036008;28;20424;-72
2022/09/26 01:20:24;;;;;;;5.55;2.47;;;;;;;;;;5052653;28;20041;-73
2022/09/26 01:22:50;;;;;;;4.18;2.20;;;;;;;;;;5053096;28;20041;-72
2022/09/26 01:25:23;;;;;;;6.32;2.40;;;;;;;;;;5052985;28;20033;-72
2022/09/26 01:27:52;;;;;;;8.35;2.80;;;;;;;;;;5054083;28;20037;-73
2022/09/26 01:30:25;;;;;;;5.60;2.30;;;;;;;;;;5053314;28;20088;-72
2022/09/26 01:33:11;;;;;;;7.78;2.47;;;;;;;;;;5052726;28;20055;-73
2022/09/26 01:35:37;;;;;;;6.15;2.08;;;;;;;;;;5053632;28;20545;-72
2022/09/26 01:38:22;;;;;;;8.45;2.35;;;;;;;;;;5036191;28;20047;-73
2022/09/26 01:41:07;;;;;;;9.43;3.30;;;;;;;;;;5053279;28;20035;-72
2022/09/26 01:43:41;;;;;;;6.65;2.30;;;;;;;;;;5053198;28;20037;-73
2022/09/26 01:46:07;;;;;;;4.22;2.17;;;;;;;;;;5053303;28;20508;-69
2022/09/26 01:48:38;;;;;;;8.20;2.45;;;;;;;;;;5051749;28;20037;-70
2022/09/26 01:51:08;;;;;;;8.00;2.17;;;;;;;;;;5053705;28;20098;-72
2022/09/26 01:53:51;;;;;;;6.50;2.35;;;;;;;;;;5053155;28;20099;-72
2022/09/26 01:56:19;;;;;;;5.13;2.33;;;;;;;;;;5052161;28;20045;-73
2022/09/26 01:58:49;;;;;;;7.68;2.95;;;;;;;;;;5053577;28;20486;-72
2022/09/26 02:01:17;;;;;;;8.13;2.53;;;;;;;;;;5053688;28;20075;-72
2022/09/26 02:03:46;;;;;;;6.07;2.70;;;;;;;;;;5052405;28;20577;-72
2022/09/26 02:06:16;;;;;;;6.40;2.33;;;;;;;;;;5053018;28;20084;-72
2022/09/26 02:08:51;;;;;;;6.95;2.63;;;;;;;;;;5052650;28;20536;-73
2022/09/26 02:11:17;;;;;;;6.23;2.70;;;;;;;;;;5053461;28;20084;-72
2022/09/26 02:13:50;;;;;;;6.93;2.92;;;;;;;;;;5052420;28;20049;-72
2022/09/26 02:16:32;;;;;;;6.38;2.75;;;;;;;;;;5038476;28;20048;-70
2022/09/26 02:19:02;;;;;;;6.70;2.78;;;;;;;;;;5051697;28;20044;-70
2022/09/26 02:21:28;;;;;;;7.32;3.13;;;;;;;;;;5051795;28;20561;-69
2022/09/26 02:23:54;;;;;;;7.78;3.10;;;;;;;;;;5053309;28;20110;-72
2022/09/26 02:26:21;;;;;;;5.85;3.33;;;;;;;;;;5051772;28;20036;-72
2022/09/26 02:28:47;;;;;;;7.80;3.53;;;;;;;;;;5051755;28;20080;-72
2022/09/26 02:31:19;;;;;;;9.25;3.45;;;;;;;;;;5051127;28;20037;-72
2022/09/26 02:33:45;;;;;;;7.15;4.20;;;;;;;;;;5052858;28;20071;-72
2022/09/26 02:36:12;;;;;;;7.68;4.22;;;;;;;;;;5052213;28;20040;-70
2022/09/26 02:38:38;;;;;;;9.50;4.97;;;;;;;;;;5051204;28;20618;-70
2022/09/26 02:41:12;;;;;;;11.02;4.78;;;;;;;;;;5051323;28;20521;-72
2022/09/26 02:43:44;;;;;;;10.30;4.88;;;;;;;;;;5050126;28;20045;-72
2022/09/26 02:46:29;;;;;;;9.80;4.60;;;;;;;;;;5051566;28;20041;-72
2022/09/26 02:48:58;;;;;;;10.27;4.70;;;;;;;;;;5057966;28;20047;-72
2022/09/26 02:51:36;;;;;;;11.23;5.40;;;;;;;;;;5053218;28;20037;-72
2022/09/26 02:54:08;;;;;;;10.70;4.93;;;;;;;;;;5052168;28;20127;-72
2022/09/26 02:56:34;;;;;;;12.32;5.30;;;;;;;;;;5052064;28;20504;-72
2022/09/26 02:59:06;;;;;;;13.52;5.15;;;;;;;;;;5035110;28;20473;-72
2022/09/26 03:01:40;;;;;;;12.05;5.25;;;;;;;;;;5051054;28;20036;-70
2022/09/26 03:04:25;;;;;;;10.63;4.85;;;;;;;;;;5052168;28;20516;-70
2022/09/26 03:06:53;;;;;;;8.88;5.15;;;;;;;;;;5039187;28;20444;-70
2022/09/26 03:09:20;;;;;;;8.07;4.60;;;;;;;;;;5051103;28;20045;-70
2022/09/26 03:11:47;;;;;;;9.40;5.30;;;;;;;;;;5051909;28;20052;-70
2022/09/26 03:14:14;;;;;;;10.55;5.03;;;;;;;;;;5052041;28;20037;-70
2022/09/26 03:16:43;;;;;;;10.63;5.00;;;;;;;;;;5050394;28;20128;-71
2022/09/26 03:19:18;;;;;;;8.60;4.72;;;;;;;;;;5056968;28;20072;-70
2022/09/26 03:21:44;;;;;;;9.88;4.40;;;;;;;;;;5051932;28;20041;-70
2022/09/26 03:24:10;;;;;;;10.48;4.90;;;;;;;;;;5050728;28;20103;-71
2022/09/26 03:26:37;;;;;;;10.15;5.03;;;;;;;;;;5055806;28;20098;-71
2022/09/26 03:29:03;;;;;;;9.57;4.75;;;;;;;;;;5054770;28;20037;-71
2022/09/26 03:31:30;;;;;;;7.70;4.50;;;;;;;;;;5055190;28;20040;-71
2022/09/26 03:33:56;;;;;;;11.30;5.18;;;;;;;;;;5054805;28;20041;-71
2022/09/26 03:36:22;;;;;;;9.57;4.57;;;;;;;;;;5054965;28;20048;-71
2022/09/26 03:38:49;;;;;;;9.80;4.80;;;;;;;;;;5037737;28;20822;-70
2022/09/26 03:41:15;;;;;;;8.52;4.65;;;;;;;;;;5056233;28;20040;-70
2022/09/26 03:43:42;;;;;;;8.20;4.78;;;;;;;;;;5054247;28;20045;-71
2022/09/26 03:46:10;;;;;;;9.27;4.93;;;;;;;;;;5054538;28;20052;-70
2022/09/26 03:48:36;;;;;;;10.43;4.78;;;;;;;;;;5054123;28;20060;-70
2022/09/26 03:51:12;;;;;;;10.73;4.93;;;;;;;;;;5068361;28;20044;-70
2022/09/26 03:53:39;;;;;;;7.32;4.78;;;;;;;;;;5055934;28;20548;-70
2022/09/26 03:56:10;;;;;;;8.95;4.63;;;;;;;;;;5055594;28;20451;-72
2022/09/26 03:58:36;;;;;;;5.72;4.60;;;;;;;;;;5054271;28;20114;-70
2022/09/26 04:01:06;;;;;;;8.60;4.72;;;;;;;;;;5053688;28;20041;-70
2022/09/26 04:03:33;;;;;;;10.75;5.15;;;;;;;;;;5053855;28;20049;-70
2022/09/26 04:06:00;;;;;;;9.65;5.70;;;;;;;;;;5054292;28;20461;-69
2022/09/26 04:08:26;;;;;;;9.40;5.38;;;;;;;;;;5054312;28;20568;-70
2022/09/26 04:10:52;;;;;;;10.48;5.47;;;;;;;;;;5054751;28;20033;-70
2022/09/26 04:13:19;;;;;;;9.13;5.38;;;;;;;;;;5055001;28;20040;-70
2022/09/26 04:15:45;;;;;;;14.27;5.60;;;;;;;;;;5054267;28;20087;-72
2022/09/26 04:18:11;;;;;;;11.90;5.85;;;;;;;;;;5054211;28;20045;-73
2022/09/26 04:20:37;;;;;;;10.00;5.95;;;;;;;;;;5054179;28;20493;-73
2022/09/26 04:23:03;;;;;;;9.50;5.65;;;;;;;;;;5055054;28;20049;-73
2022/09/26 04:25:30;;;;;;;11.48;5.47;;;;;;;;;;5055515;28;20036;-73
2022/09/26 04:27:56;;;;;;;10.45;5.50;;;;;;;;;;5054835;28;20040;-73
2022/09/26 04:30:22;;;;;;;10.30;5.90;;;;;;;;;;5053903;28;20037;-72
2022/09/26 04:32:48;;;;;;;11.25;5.35;;;;;;;;;;5053503;28;20057;-72
2022/09/26 04:35:14;;;;;;;11.68;6.20;;;;;;;;;;5053806;28;20040;-71
2022/09/26 04:37:40;;;;;;;10.00;5.70;;;;;;;;;;5053571;28;20486;-71
2022/09/26 04:40:08;;;;;;;10.23;5.45;;;;;;;;;;5054879;28;20195;-72
2022/09/26 04:42:35;;;;;;;9.38;5.50;;;;;;;;;;5053211;28;20057;-71
2022/09/26 04:45:02;;;;;;;10.02;5.20;;;;;;;;;;5054325;28;20456;-71
2022/09/26 04:47:28;;;;;;;11.02;5.43;;;;;;;;;;5053453;28;20036;-71
2022/09/26 04:49:54;;;;;;;9.65;4.95;;;;;;;;;;5053338;28;20566;-71
2022/09/26 04:52:20;;;;;;;12.73;5.88;;;;;;;;;;5053396;28;20048;-71
2022/09/26 04:54:46;;;;;;;10.80;5.05;;;;;;;;;;5037388;28;20375;-73
2022/09/26 04:57:13;;;;;;;10.30;5.80;;;;;;;;;;5054779;28;20102;-73
2022/09/26 04:59:39;;;;;;;10.52;5.28;;;;;;;;;;5036976;28;20493;-73
2022/09/26 05:02:07;;;;;;;13.60;5.82;;;;;;;;;;5052986;28;20068;-73
2022/09/26 05:04:33;;;;;;;10.73;5.72;;;;;;;;;;5053171;28;20072;-73
2022/09/26 05:07:00;;;;;;;8.55;5.53;;;;;;;;;;5052874;28;20056;-72
2022/09/26 05:09:26;;;;;;;9.63;5.28;;;;;;;;;;5054135;28;20501;-72
2022/09/26 05:11:52;;;;;;;13.35;5.82;;;;;;;;;;5052955;28;20041;-72
2022/09/26 05:14:18;;;;;;;13.18;5.72;;;;;;;;;;5052942;28;20181;-72
2022/09/26 05:16:44;;;;;;;11.75;5.93;;;;;;;;;;5054328;28;20041;-71
2022/09/26 05:19:10;;;;;;;10.10;5.25;;;;;;;;;;5053989;28;20049;-70
2022/09/26 05:21:36;;;;;;;8.98;5.70;;;;;;;;;;5052629;28;20486;-72
2022/09/26 05:26:48;;;;;;;10.85;5.30;;;;;;;;;;5052783;28;20041;-71
2022/09/26 05:29:16;;;;;;;9.90;5.40;;;;;;;;;;5048322;28;20123;-72
2022/09/26 05:31:42;;;;;;;12.45;5.78;;;;;;;;;;5052577;28;20115;-72
2022/09/26 05:34:09;;;;;;;10.30;5.28;;;;;;;;;;5035722;28;20402;-72
2022/09/26 05:36:36;;;;;;;12.27;5.50;;;;;;;;;;5036008;28;20083;-73
2022/09/26 05:39:02;;;;;;;11.00;5.43;;;;;;;;;;5054014;28;20390;-73
2022/09/26 05:41:30;;;;;;;10.05;5.20;;;;;;;;;;5053476;28;20033;-73
2022/09/26 05:43:56;;;;;;;11.00;5.78;;;;;;;;;;5053534;28;20041;-71
2022/09/26 05:46:22;;;;;;;8.75;5.00;;;;;;;;;;5052191;28;20536;-71
2022/09/26 05:48:49;;;;;;;8.90;5.20;;;;;;;;;;5053066;28;20064;-72
2022/09/26 05:51:16;;;;;;;11.00;5.57;;;;;;;;;;5051610;28;20093;-71
2022/09/26 05:53:43;;;;;;;7.82;4.75;;;;;;;;;;5051916;28;20044;-72
2022/09/26 05:56:10;;;;;;;9.02;5.28;;;;;;;;;;5051679;28;20044;-71
2022/09/26 05:58:37;;;;;;;8.60;5.18;;;;;;;;;;5053466;28;20521;-71
2022/09/26 06:01:05;;;;;;;9.35;4.72;;;;;;;;;;5050299;28;20374;-73
2022/09/26 06:03:34;;;;;;;9.75;4.90;;;;;;;;;;5053152;28;20482;-72
2022/09/26 06:06:10;;;;;;;9.93;4.82;;;;;;;;;;5052871;28;20053;-72
2022/09/26 06:08:37;;;;;;;9.80;4.60;;;;;;;;;;5051768;28;20029;-73
2022/09/26 06:11:07;;;;;;;8.80;4.65;;;;;;;;;;5051691;28;20033;-73
2022/09/26 06:13:34;;;;;;;9.85;4.68;;;;;;;;;;5051789;28;20083;-73
2022/09/26 06:16:04;;;;;;;9.88;4.78;;;;;;;;;;5051360;28;20045;-73
2022/09/26 06:18:30;;;;;;;9.32;4.38;;;;;;;;;;5052333;28;20045;-73
2022/09/26 06:20:56;;;;;;;7.72;4.30;;;;;;;;;;5053355;28;20397;-73
2022/09/26 06:23:22;;;;;;;7.72;4.70;;;;;;;;;;5053063;28;20047;-73
2022/09/26 06:25:48;;;;;;;7.50;4.10;;;;;;;;;;5051656;28;20052;-73
2022/09/26 06:28:14;;;;;;;8.57;4.55;;;;;;;;;;5048255;28;20040;-73
2022/09/26 06:30:40;;;;;;;10.43;4.38;;;;;;;;;;5052830;28;20120;-73
2022/09/26 06:33:07;;;;;;;9.90;4.18;;;;;;;;;;5051188;28;20048;-72
2022/09/26 06:35:33;;;;;;;8.52;4.47;;;;;;;;;;5052024;28;20024;-72
2022/09/26 06:37:59;;;;;;;6.50;4.05;;;;;;;;;;5052795;28;20041;-73
2022/09/26 06:40:25;;;;;;;8.98;4.32;;;;;;;;;;5051068;28;20069;-71
2022/09/26 06:42:51;;;;;;;10.50;4.72;;;;;;;;;;5050819;28;20051;-71
2022/09/26 06:45:17;;;;;;;7.90;4.47;;;;;;;;;;5049390;28;20228;-73
2022/09/26 06:47:45;;;;;;;8.10;4.20;;;;;;;;;;5035375;28;20485;-73
2022/09/26 06:50:11;;;;;;;6.57;3.63;;;;;;;;;;5053300;28;20132;-73
2022/09/26 06:52:37;;;;;;;8.77;3.60;;;;;;;;;;5034530;28;20048;-73
2022/09/26 06:55:05;;;;;;;9.07;3.70;;;;;;;;;;5045340;28;20128;-73
2022/09/26 06:57:41;;;;;;;8.40;3.70;;;;;;;;;;5050753;28;20037;-73
2022/09/26 07:00:08;;;;;;;6.82;3.55;;;;;;;;;;5051722;28;20528;-73
2022/09/26 07:02:35;;;;;;;7.25;3.58;;;;;;;;;;5051446;28;20049;-74
2022/09/26 07:05:01;;;;;;;5.40;3.33;;;;;;;;;;5052215;28;20037;-73
2022/09/26 07:07:29;;;;;;;8.73;3.85;;;;;;;;;;5050891;28;20078;-70
2022/09/26 07:09:55;;;;;;;10.73;4.35;;;;;;;;;;5052047;28;20049;-70
2022/09/26 07:12:23;;;;;;;7.95;3.60;;;;;;;;;;5051330;28;20052;-70
2022/09/26 07:14:50;;;;;;;7.68;3.90;;;;;;;;;;5050311;28;20102;-70
2022/09/26 07:17:17;;;;;;;6.50;3.45;;;;;;;;;;5033683;28;20109;-73
2022/09/26 07:19:43;;;;;;;5.88;3.83;;;;;;;;;;5050979;28;20116;-73
2022/09/26 07:22:09;;;;;;;6.55;3.60;;;;;;;;;;5052014;28;20033;-73
2022/09/26 07:24:36;;;;;;;8.25;3.72;;;;;;;;;;5052213;28;20041;-73
2022/09/26 07:27:02;;;;;;;7.95;3.53;;;;;;;;;;5050731;28;20048;-74
2022/09/26 07:29:29;;;;;;;6.50;3.50;;;;;;;;;;5051515;28;20044;-74
2022/09/26 07:31:55;;;;;;;5.93;3.95;;;;;;;;;;5050806;28;20037;-73
2022/09/26 07:34:24;;;;;;;7.80;3.30;;;;;;;;;;5051690;28;20045;-71
2022/09/26 07:36:51;;;;;;;6.22;2.97;;;;;;;;;;5034067;28;20390;-70
2022/09/26 07:39:18;;;;;;;8.05;3.20;;;;;;;;;;5046676;28;20056;-70
2022/09/26 07:41:45;;;;;;;8.88;3.80;;;;;;;;;;5050673;28;20513;-73
2022/09/26 07:44:11;;;;;;;6.30;2.95;;;;;;;;;;5050944;28;20087;-70
2022/09/26 07:52:06;;;;;;;5.97;2.83;;;;;;;;;;5052055;28;20037;-71
2022/09/26 07:54:34;;;;;;;6.15;3.35;;;;;;;;;;5049851;28;20477;-70
2022/09/26 07:57:00;;;;;;;7.85;3.08;;;;;;;;;;5050632;28;20063;-70
2022/09/26 07:59:26;;;;;;;6.68;3.13;;;;;;;;;;5051326;28;20029;-71
2022/09/26 08:01:53;;;;;;;8.75;3.50;;;;;;;;;;5042436;28;20037;-70
2022/09/26 08:04:19;;;;;;;10.25;3.20;;;;;;;;;;5046724;28;20087;-70
2022/09/26 08:06:45;;;;;;;5.88;3.22;;;;;;;;;;5051094;28;20564;-71
2022/09/26 08:09:12;;;;;;;6.30;3.05;;;;;;;;;;5045779;28;20044;-70
2022/09/26 08:11:40;;;;;;;6.63;3.08;;;;;;;;;;5053379;28;20033;-70
2022/09/26 08:14:06;;;;;;;6.75;3.00;;;;;;;;;;5054046;28;20044;-69
2022/09/26 08:16:32;;;;;;;5.78;2.95;;;;;;;;;;5054470;28;20041;-71
2022/09/26 08:19:00;;;;;;;9.60;3.00;;;;;;;;;;5037515;28;20041;-72
2022/09/26 08:21:26;;;;;;;8.50;3.03;;;;;;;;;;5053592;28;20048;-71
2022/09/26 08:23:52;;;;;;;9.43;3.10;;;;;;;;;;5053470;28;20097;-70
2022/09/26 08:26:20;;;;;;;5.85;3.20;;;;;;;;;;5053910;28;20056;-74
2022/09/26 08:28:46;;;;;;;9.88;3.33;;;;;;;;;;5053927;28;20120;-73
2022/09/26 08:31:12;;;;;;;6.22;2.88;;;;;;;;;;5054592;28;20044;-73
2022/09/26 08:33:39;;;;;;;6.50;3.00;;;;;;;;;;5054801;28;20452;-70
2022/09/26 08:36:06;;;;;;;6.10;3.00;;;;;;;;;;5055032;28;20056;-70
2022/09/26 08:38:34;;;;;;;7.68;2.95;;;;;;;;;;5054656;28;20047;-71
2022/09/26 08:41:15;;;;;;;6.30;3.17;;;;;;;;;;5053366;28;20069;-71
2022/09/26 08:43:47;;;;;;;5.18;2.70;;;;;;;;;;5053588;28;20052;-71
2022/09/26 08:49:22;;;;;;;7.00;2.90;;;;;;;;;;5053344;28;20052;-71
2022/09/26 08:51:50;;;;;;;6.40;2.78;;;;;;;;;;5053397;28;20438;-70
2022/09/26 08:54:23;;;;;;;6.88;3.00;;;;;;;;;;5057950;28;20044;-73
2022/09/26 08:56:52;;;;;;;10.60;2.85;;;;;;;;;;5062923;28;20040;-70
2022/09/26 08:59:27;;;;;;;7.55;2.90;;;;;;;;;;5054087;28;20055;-71
2022/09/26 09:01:54;;;;;;;8.45;3.00;;;;;;;;;;5053106;28;20524;-70
2022/09/26 09:04:24;;;;;;;6.57;2.72;;;;;;;;;;5036027;28;20532;-71
2022/09/26 09:06:54;;;;;;;6.97;2.83;;;;;;;;;;5054275;28;20114;-70
2022/09/26 09:09:21;;;;;;;7.75;3.15;;;;;;;;;;5053993;28;20121;-74
2022/09/26 09:12:08;;;;;;;8.10;2.70;;;;;;;;;;5052969;28;20059;-74
2022/09/26 09:14:34;;;;;;;5.68;2.88;;;;;;;;;;5051913;28;20041;-74
2022/09/26 09:17:18;;;;;;;6.22;2.97;;;;;;;;;;5053057;28;20045;-73
2022/09/26 09:19:49;;;;;;;5.38;2.90;;;;;;;;;;5052743;28;20505;-73
2022/09/26 09:22:34;;;;;;;10.75;3.03;;;;;;;;;;5052105;28;20033;-73
2022/09/26 09:25:23;;;;;;;6.57;3.05;;;;;;;;;;5052865;28;20389;-73
2022/09/26 09:28:05;;;;;;;7.88;3.05;;;;;;;;;;5046122;28;20087;-72
2022/09/26 09:30:40;;;;;;;5.88;3.35;;;;;;;;;;5056793;28;20036;-71
2022/09/26 09:33:24;;;;;;;7.68;3.25;;;;;;;;;;5068935;28;20486;-71
2022/09/26 09:36:02;;;;;;;7.63;3.78;;;;;;;;;;5052544;28;20041;-70
2022/09/26 09:38:30;;;;;;;10.07;3.75;;;;;;;;;;5052847;28;20037;-75
2022/09/26 09:40:59;;;;;;;8.52;3.55;;;;;;;;;;5052901;28;20045;-74
2022/09/26 09:43:30;;;;;;;7.70;4.05;;;;;;;;;;5052467;28;20126;-73
2022/09/26 09:46:12;;;;;;;8.52;3.70;;;;;;;;;;5051629;28;20568;-74
2022/09/26 09:48:38;;;;;;;12.30;4.75;;;;;;;;;;5052763;28;20091;-73
2022/09/26 09:51:23;;;;;;;7.35;4.10;;;;;;;;;;5051805;28;20063;-73
2022/09/26 09:53:49;;;;;;;7.28;4.25;;;;;;;;;;5050780;28;20052;-72
2022/09/26 09:56:33;;;;;;;10.88;4.28;;;;;;;;;;5053559;28;20505;-73
2022/09/26 09:59:08;;;;;;;10.90;5.13;;;;;;;;;;5054625;28;20102;-74
2022/09/26 10:01:41;;;;;;;10.32;4.47;;;;;;;;;;5053188;28;20485;-73
2022/09/26 10:04:07;;;;;;;10.15;4.57;;;;;;;;;;5051889;28;20048;-72
2022/09/26 10:06:33;;;;;;;6.78;4.68;;;;;;;;;;5052043;28;20045;-71
2022/09/26 10:09:04;;;;;;;10.57;4.60;;;;;;;;;;5035702;28;20403;-71
2022/09/26 10:11:49;;;;;;;10.50;5.20;;;;;;;;;;5035635;28;20440;-74
2022/09/26 10:14:19;;;;;;;7.18;4.80;;;;;;;;;;5051755;28;20040;-73
2022/09/26 10:17:04;;;;;;;9.00;5.20;;;;;;;;;;5037810;28;20574;-73
2022/09/26 10:19:36;;;;;;;10.35;4.43;;;;;;;;;;5068625;28;20080;-74
2022/09/26 10:22:02;;;;;;;8.93;4.50;;;;;;;;;;5053669;28;20090;-74
2022/09/26 10:24:37;;;;;;;6.60;4.35;;;;;;;;;;5051535;28;20046;-72
2022/09/26 10:27:17;;;;;;;8.55;4.65;;;;;;;;;;5051683;28;20041;-73
2022/09/26 10:29:44;;;;;;;8.30;4.70;;;;;;;;;;5052579;28;20115;-73
2022/09/26 10:32:10;;;;;;;10.25;4.57;;;;;;;;;;5051761;28;20044;-73
2022/09/26 10:34:38;;;;;;;11.82;5.20;;;;;;;;;;5050670;28;20095;-71
2022/09/26 10:37:24;;;;;;;8.30;5.25;;;;;;;;;;5051146;28;20041;-74
2022/09/26 10:42:38;;;;;;;8.70;5.63;;;;;;;;;;5051385;28;20041;-73
2022/09/26 10:45:14;;;;;;;9.60;5.75;;;;;;;;;;5050955;28;20040;-74
2022/09/26 10:47:44;;;;;;;10.32;5.55;;;;;;;;;;5051266;28;20375;-74
2022/09/26 10:50:24;;;;;;;7.32;5.32;;;;;;;;;;5052820;28;20041;-73
2022/09/26 10:52:55;;;;;;;9.30;6.18;;;;;;;;;;5051682;28;20037;-73
2022/09/26 10:55:25;;;;;;;11.65;5.85;;;;;;;;;;5033172;28;20079;-73
2022/09/26 10:57:55;;;;;;;8.30;5.72;;;;;;;;;;5051217;28;20052;-74
2022/09/26 11:00:38;;;;;;;7.65;5.30;;;;;;;;;;5050376;28;20041;-74
2022/09/26 11:03:13;;;;;;;9.95;5.70;;;;;;;;;;5037705;28;20045;-73
2022/09/26 11:05:56;;;;;;;9.75;5.75;;;;;;;;;;5065482;28;20516;-74
2022/09/26 11:08:29;;;;;;;8.73;5.45;;;;;;;;;;5039790;28;20041;-74
2022/09/26 11:11:03;;;;;;;8.55;5.75;;;;;;;;;;5052129;28;20505;-71
2022/09/26 11:13:37;;;;;;;8.73;5.80;;;;;;;;;;5050191;28;20037;-70
2022/09/26 11:16:08;;;;;;;8.27;5.47;;;;;;;;;;5050917;28;20565;-73
2022/09/26 11:18:35;;;;;;;10.77;5.78;;;;;;;;;;5050955;28;20037;-74
2022/09/26 11:21:07;;;;;;;11.07;6.00;;;;;;;;;;5052061;28;20041;-72
2022/09/26 11:23:45;;;;;;;7.95;5.28;;;;;;;;;;5045937;28;20371;-73
2022/09/26 11:26:26;;;;;;;8.32;5.65;;;;;;;;;;5065531;28;20073;-70
2022/09/26 11:29:04;;;;;;;8.38;5.95;;;;;;;;;;5051730;28;20048;-73
2022/09/26 11:31:35;;;;;;;11.45;5.82;;;;;;;;;;5050627;28;20041;-74
2022/09/26 11:34:03;;;;;;;7.57;5.70;;;;;;;;;;5052106;28;20569;-74
2022/09/26 11:36:32;;;;;;;8.57;5.55;;;;;;;;;;5051924;28;20390;-74
2022/09/26 11:39:16;;;;;;;9.00;6.40;;;;;;;;;;5051192;28;20053;-74
2022/09/26 11:42:03;;;;;;;11.45;6.00;;;;;;;;;;5051985;28;20396;-74
2022/09/26 11:44:29;;;;;;;;;;;;;;;;;;5052740;28;20036;-74
2022/09/26 11:46:55;;;;;;;8.57;6.15;;;;;;;;;;5052382;28;20032;-71
2022/09/26 11:49:40;;;;;;;8.60;6.32;;;;;;;;;;5055138;28;20048;-75
2022/09/26 11:52:24;;;;;;;9.90;5.75;;;;;;;;;;5054974;28;20371;-74
2022/09/26 11:55:09;;;;;;;9.27;5.90;;;;;;;;;;5044404;28;20486;-83
2022/09/26 11:57:39;;;;;;;8.50;4.97;;;;;;;;;;5055798;28;20048;-82
2022/09/26 12:00:23;;;;;;;9.18;6.03;;;;;;;;;;5054255;28;20044;-77
2022/09/26 12:03:07;;;;;;;9.52;6.13;;;;;;;;;;5055657;28;20044;-74
2022/09/26 12:05:40;;;;;;;11.55;6.00;;;;;;;;;;5041264;28;20128;-81
2022/09/26 12:08:18;;;;;;;8.40;5.80;;;;;;;;;;5042614;28;20134;-77
2022/09/26 12:10:45;;;;;;;10.50;6.25;;;;;;;;;;5068190;28;20456;-76
2022/09/26 12:13:33;;;;;;;12.00;6.22;;;;;;;;;;5053913;28;20124;-76
2022/09/26 12:15:59;;;;;;;9.15;6.18;;;;;;;;;;5064676;28;20511;-71
2022/09/26 12:18:35;;;;;;;8.90;5.82;;;;;;;;;;5053843;28;20120;-71
2022/09/26 12:21:03;;;;;;;9.30;5.85;;;;;;;;;;5054925;28;20048;-74
2022/09/26 12:23:40;;;;;;;7.00;6.00;;;;;;;;;;5052101;28;20041;-74
2022/09/26 12:26:13;;;;;;;8.02;5.75;;;;;;;;;;5053776;28;20165;-72
2022/09/26 12:28:50;;;;;;;10.20;5.50;;;;;;;;;;5067411;28;20043;-72
2022/09/26 12:31:25;;;;;;;8.02;4.95;;;;;;;;;;5053365;28;20045;-71
2022/09/26 12:34:01;;;;;;;8.30;5.70;;;;;;;;;;5053590;28;20371;-72
2022/09/26 12:36:27;;;;;;;;;;;;;;;;;;5065289;28;20390;-74
2022/09/26 12:39:08;;;;;;;8.45;4.70;;;;;;;;;;5053095;28;19963;-72
2022/09/26 12:41:53;;;;;;;5.82;4.80;;;;;;;;;;5053027;28;20041;-73
2022/09/26 12:44:46;;;;;;;6.70;4.72;;;;;;;;;;5069906;28;20412;-72
2022/09/26 12:47:31;;;;;;;4.78;4.05;;;;;;;;;;5053999;28;20037;-71
2022/09/26 12:50:30;;;;;;;6.88;4.50;;;;;;;;;;5036565;28;20053;-73
2022/09/26 12:53:02;;;;;;;5.97;4.90;;;;;;;;;;5036709;28;20485;-71
2022/09/26 12:55:43;;;;;;;6.95;3.92;;;;;;;;;;5059930;28;20080;-71
2022/09/26 12:58:12;;;;;;;5.65;4.60;;;;;;;;;;5053085;28;20041;-76
2022/09/26 13:00:48;;;;;;;5.55;4.10;;;;;;;;;;5052969;28;20053;-76
2022/09/26 13:03:23;;;;;;;5.28;4.00;;;;;;;;;;5050945;28;20460;-76
2022/09/26 13:06:08;;;;;;;5.40;3.63;;;;;;;;;;5054457;28;20049;-77
2022/09/26 13:08:53;;;;;;;5.13;3.30;;;;;;;;;;5053531;28;20048;-76
2022/09/26 13:11:22;;;;;;;4.95;3.25;;;;;;;;;;5054093;28;20094;-77
2022/09/26 13:14:07;;;;;;;5.07;3.20;;;;;;;;;;5035574;28;20043;-76
2022/09/26 13:16:49;;;;;;;4.03;3.20;;;;;;;;;;5053255;28;20036;-76
2022/09/26 13:19:24;;;;;;;5.20;3.25;;;;;;;;;;5052043;28;20302;-72
2022/09/26 13:22:02;;;;;;;6.75;3.30;;;;;;;;;;5041074;28;20041;-75
2022/09/26 13:24:39;;;;;;;4.68;3.17;;;;;;;;;;5052180;28;20045;-77
2022/09/26 13:27:16;;;;;;;5.85;3.13;;;;;;;;;;5053386;28;20520;-76
2022/09/26 13:29:43;;;;;;;4.38;3.10;;;;;;;;;;5053632;28;20037;-75
2022/09/26 13:32:37;;;;;;;4.50;2.95;;;;;;;;;;5036001;28;20041;-80
2022/09/26 13:35:16;;;;;;;4.85;3.10;;;;;;;;;;5036104;28;20040;-76
2022/09/26 13:37:52;;;;;;;4.78;3.08;;;;;;;;;;5051952;28;20098;-76
2022/09/26 13:40:19;;;;;;;;;;;;;;;;;;5051644;28;20044;-76
2022/09/26 13:42:57;;;;;;;6.40;3.42;;;;;;;;;;5051860;28;20281;-76
2022/09/26 13:45:33;;;;;;;5.13;2.90;;;;;;;;;;5052903;28;20539;-80
2022/09/26 13:48:06;;;;;;;6.60;3.13;;;;;;;;;;5051640;28;20087;-76
2022/09/26 13:50:54;;;;;;;4.80;2.92;;;;;;;;;;5051634;28;20084;-73
2022/09/26 13:53:31;;;;;;;5.25;2.95;;;;;;;;;;5052174;28;20573;-76
2022/09/26 13:56:16;;;;;;;5.00;3.05;;;;;;;;;;5052834;28;20111;-74
2022/09/26 13:58:42;;;;;;;4.97;3.35;;;;;;;;;;5052125;28;20128;-73
2022/09/26 14:01:24;;;;;;;6.50;3.13;;;;;;;;;;5050734;28;20064;-75
2022/09/26 14:04:10;;;;;;;6.93;3.38;;;;;;;;;;5049004;28;20045;-72
2022/09/26 14:06:37;;;;;;;4.60;3.28;;;;;;;;;;5041443;28;20049;-72
2022/09/26 14:09:24;;;;;;;5.43;3.30;;;;;;;;;;5051887;28;20045;-72
2022/09/26 14:11:51;;;;;;;7.82;3.95;;;;;;;;;;5048612;28;20051;-72
2022/09/26 14:14:22;;;;;;;6.53;4.25;;;;;;;;;;5052074;28;20146;-75
2022/09/26 14:16:50;;;;;;;7.18;4.70;;;;;;;;;;5064962;28;20041;-71
2022/09/26 14:19:16;;;;;;;6.97;4.07;;;;;;;;;;5053262;28;20120;-72
2022/09/26 14:21:56;;;;;;;6.25;4.25;;;;;;;;;;5051724;28;20033;-73
2022/09/26 14:24:29;;;;;;;6.40;4.82;;;;;;;;;;5051795;28;20120;-74
2022/09/26 14:27:10;;;;;;;7.78;4.80;;;;;;;;;;5039459;28;20130;-74
2022/09/26 14:29:45;;;;;;;7.20;5.75;;;;;;;;;;5053057;28;20040;-74
2022/09/26 14:32:47;;;;;;;9.30;5.30;;;;;;;;;;5040887;28;20498;-75
2022/09/26 14:35:27;;;;;;;14.05;10.18;;;;;;;;;;5035996;28;20036;-75
2022/09/26 14:37:59;;;;;;;8.85;7.05;;;;;;;;;;5043702;28;20044;-75
2022/09/26 14:40:38;;;;;;;7.90;5.60;;;;;;;;;;5051493;28;20037;-74
2022/09/26 14:43:11;;;;;;;5.97;4.72;;;;;;;;;;5051078;28;20045;-75
2022/09/26 14:45:37;;;;;;;6.60;4.85;;;;;;;;;;5053441;28;20099;-75
2022/09/26 14:48:03;;;;;;;7.55;4.38;;;;;;;;;;5052033;28;20032;-74
2022/09/26 14:50:34;;;;;;;7.47;5.28;;;;;;;;;;5051565;28;20485;-74
2022/09/26 14:53:10;;;;;;;7.35;5.13;;;;;;;;;;5056627;28;20048;-74
2022/09/26 14:55:44;;;;;;;7.57;4.72;;;;;;;;;;5058161;28;20083;-74
2022/09/26 14:58:17;;;;;;;6.57;4.30;;;;;;;;;;5053404;28;20037;-75
2022/09/26 15:00:45;;;;;;;8.82;5.00;;;;;;;;;;5051580;28;20055;-75
2022/09/26 15:03:13;;;;;;;7.95;5.47;;;;;;;;;;5052024;28;20124;-74
2022/09/26 15:05:40;;;;;;;9.20;4.72;;;;;;;;;;5057003;28;20033;-72
2022/09/26 15:08:19;;;;;;;7.82;4.43;;;;;;;;;;5056105;28;20132;-72
2022/09/26 15:10:47;;;;;;;6.90;4.30;;;;;;;;;;5062373;28;20029;-72
2022/09/26 15:13:20;;;;;;;8.55;4.30;;;;;;;;;;5059835;28;20048;-75
2022/09/26 15:15:49;;;;;;;8.30;4.13;;;;;;;;;;5060972;28;20071;-74
2022/09/26 15:18:27;;;;;;;10.30;4.20;;;;;;;;;;5062298;28;20071;-73